Time;durP1;ratioP1;P1;durP2;ratioP2;P2;SDS_P1;SDS_P2;PMS_P1;PMS_P2;Temp;Humidity;BMP_temperature;BMP_pressure;BME280_temperature;BME280_humidity;BME280_pressure;Samples;Min_cycle;Max_cycle;Signal;HPM_P1;HPM_P2
2023/07/19 00:00:39;;;;;;;6.70;2.20;;;;;;;17.91;100.00;101524.44;5089870;28;20128;-66
2023/07/19 00:03:04;;;;;;;7.22;2.50;;;;;;;17.87;100.00;101533.53;5089475;28;20394;-61
2023/07/19 00:05:30;;;;;;;5.28;2.38;;;;;;;17.81;100.00;101534.75;5090155;28;20027;-66
2023/07/19 00:07:56;;;;;;;3.95;2.13;;;;;;;17.76;100.00;101533.28;5090642;28;20021;-66
2023/07/19 00:10:22;;;;;;;6.03;2.30;;;;;;;17.68;100.00;101531.88;5089059;28;20019;-62
2023/07/19 00:12:47;;;;;;;3.13;2.22;;;;;;;17.64;100.00;101534.78;5090043;28;20031;-67
2023/07/19 00:15:12;;;;;;;7.72;2.90;;;;;;;17.64;100.00;101532.13;5105546;28;20071;-67
2023/07/19 00:17:38;;;;;;;5.15;2.72;;;;;;;17.67;100.00;101534.63;5109188;28;20028;-66
2023/07/19 00:20:04;;;;;;;9.00;2.78;;;;;;;17.67;100.00;101526.63;5108732;28;20041;-65
2023/07/19 00:22:30;;;;;;;6.22;2.60;;;;;;;17.70;100.00;101517.59;5108899;28;20027;-65
2023/07/19 00:24:56;;;;;;;3.17;2.22;;;;;;;17.75;100.00;101515.53;5108857;28;20019;-66
2023/07/19 00:27:21;;;;;;;5.93;2.38;;;;;;;17.81;100.00;101516.09;5109783;28;20105;-66
2023/07/19 00:29:47;;;;;;;4.53;2.63;;;;;;;17.85;100.00;101511.44;5109393;28;20062;-67
2023/07/19 00:32:12;;;;;;;7.40;2.75;;;;;;;17.88;100.00;101508.59;5109922;28;20458;-64
2023/07/19 00:34:37;;;;;;;6.03;2.50;;;;;;;17.93;100.00;101514.56;5109366;28;20074;-66
2023/07/19 00:37:03;;;;;;;12.07;2.60;;;;;;;17.98;100.00;101508.97;5107429;28;20020;-66
2023/07/19 00:39:28;;;;;;;11.80;2.55;;;;;;;18.00;100.00;101509.72;5107289;28;20028;-60
2023/07/19 00:41:54;;;;;;;5.22;2.25;;;;;;;18.02;100.00;101501.66;5109308;27;20035;-62
2023/07/19 00:44:19;;;;;;;4.72;2.72;;;;;;;18.04;100.00;101499.78;5109705;27;20020;-66
2023/07/19 00:46:45;;;;;;;3.33;2.38;;;;;;;18.05;100.00;101496.16;5109287;28;20098;-66
2023/07/19 00:49:10;;;;;;;5.63;2.28;;;;;;;18.09;100.00;101489.69;5108190;28;20042;-67
2023/07/19 00:51:36;;;;;;;4.25;2.65;;;;;;;18.16;100.00;101496.47;5109193;28;20023;-66
2023/07/19 00:54:03;;;;;;;3.33;2.00;;;;;;;18.20;100.00;101497.13;5106246;28;20024;-65
2023/07/19 00:56:29;;;;;;;3.80;2.10;;;;;;;18.21;100.00;101492.69;5107164;28;20031;-61
2023/07/19 00:58:54;;;;;;;5.53;1.95;;;;;;;18.22;100.00;101494.38;5107716;28;20358;-66
2023/07/19 01:01:21;;;;;;;3.75;2.13;;;;;;;18.24;100.00;101490.69;5107879;28;20039;-64
2023/07/19 01:03:47;;;;;;;5.30;2.17;;;;;;;18.21;100.00;101490.84;5107352;28;20059;-65
2023/07/19 01:06:12;;;;;;;5.18;2.40;;;;;;;18.22;100.00;101499.72;5098879;28;20052;-66
2023/07/19 01:08:38;;;;;;;4.22;2.53;;;;;;;18.23;100.00;101493.44;5113159;22;20057;-66
2023/07/19 01:11:03;;;;;;;5.40;2.28;;;;;;;18.24;100.00;101489.84;5043451;28;20083;-65
2023/07/19 01:13:29;;;;;;;5.35;2.13;;;;;;;18.29;100.00;101487.75;5030092;28;20025;-65
2023/07/19 01:15:54;;;;;;;5.93;1.95;;;;;;;18.30;100.00;101497.47;5047114;28;20075;-65
2023/07/19 01:18:20;;;;;;;2.25;1.80;;;;;;;18.31;100.00;101491.22;5048003;28;20035;-62
2023/07/19 01:20:46;;;;;;;6.35;2.22;;;;;;;18.31;100.00;101483.22;5047769;28;20039;-66
2023/07/19 01:23:11;;;;;;;5.18;2.17;;;;;;;18.28;100.00;101488.72;5048070;28;20033;-66
2023/07/19 01:25:37;;;;;;;4.63;1.83;;;;;;;18.34;100.00;101484.84;5048408;28;20032;-66
2023/07/19 01:28:02;;;;;;;3.85;1.92;;;;;;;18.35;100.00;101475.88;5033341;28;20753;-67
2023/07/19 01:30:28;;;;;;;4.93;2.00;;;;;;;18.36;100.00;101472.28;5028648;28;20113;-66
2023/07/19 01:32:53;;;;;;;5.20;2.13;;;;;;;18.34;100.00;101471.50;5027808;28;20032;-63
2023/07/19 01:35:19;;;;;;;3.28;1.60;;;;;;;18.26;100.00;101483.47;5027897;28;20022;-66
2023/07/19 01:37:44;;;;;;;4.75;1.95;;;;;;;18.22;100.00;101476.59;5028080;28;20026;-66
2023/07/19 01:40:11;;;;;;;4.10;1.95;;;;;;;18.25;100.00;101481.75;5027619;28;20026;-65
2023/07/19 01:42:37;;;;;;;5.07;1.98;;;;;;;18.15;100.00;101476.06;5028238;28;20053;-66
2023/07/19 01:45:02;;;;;;;2.67;1.98;;;;;;;18.15;100.00;101483.22;5041698;28;20028;-61
2023/07/19 01:47:28;;;;;;;9.73;2.65;;;;;;;18.08;100.00;101477.31;5047522;28;20059;-66
2023/07/19 01:49:53;;;;;;;4.80;2.20;;;;;;;18.02;100.00;101481.19;5031292;28;20116;-68
2023/07/19 01:52:19;;;;;;;4.78;1.75;;;;;;;17.99;100.00;101476.03;5027990;28;20029;-67
2023/07/19 01:54:44;;;;;;;3.97;2.38;;;;;;;17.93;100.00;101477.22;5025553;28;20471;-66
2023/07/19 01:57:11;;;;;;;4.75;2.20;;;;;;;17.94;100.00;101468.28;5028179;28;20030;-67
2023/07/19 01:59:36;;;;;;;5.00;2.38;;;;;;;17.91;100.00;101468.44;5026664;28;20030;-67
2023/07/19 02:02:02;;;;;;;5.80;2.53;;;;;;;17.91;100.00;101467.59;5027795;28;20447;-67
2023/07/19 02:04:27;;;;;;;7.28;2.10;;;;;;;17.90;100.00;101464.06;5027789;28;20041;-67
2023/07/19 02:06:53;;;;;;;6.78;2.20;;;;;;;17.90;100.00;101466.72;5042335;28;20047;-66
2023/07/19 02:09:18;;;;;;;3.28;2.00;;;;;;;17.93;100.00;101471.91;5046449;28;20029;-67
2023/07/19 02:11:44;;;;;;;5.97;2.10;;;;;;;18.00;100.00;101468.91;5046550;28;20036;-67
2023/07/19 02:14:09;;;;;;;5.00;2.33;;;;;;;18.03;100.00;101471.41;5046283;28;20056;-66
2023/07/19 02:16:35;;;;;;;9.27;2.38;;;;;;;18.10;100.00;101471.91;5047021;28;20589;-64
2023/07/19 02:19:03;;;;;;;4.35;2.20;;;;;;;18.13;100.00;101480.63;5046204;28;20077;-66
2023/07/19 02:21:28;;;;;;;3.70;1.90;;;;;;;18.18;100.00;101470.56;5046905;28;20104;-62
2023/07/19 02:23:54;;;;;;;5.50;2.50;;;;;;;18.18;100.00;101472.34;5046032;28;20115;-64
2023/07/19 02:26:19;;;;;;;6.95;2.40;;;;;;;18.16;100.00;101472.47;5047254;28;20057;-65
2023/07/19 02:28:45;;;;;;;5.35;2.25;;;;;;;18.08;100.00;101466.66;5046314;28;20024;-66
2023/07/19 02:31:10;;;;;;;4.90;2.15;;;;;;;18.01;100.00;101463.47;5047667;28;20028;-65
2023/07/19 02:33:36;;;;;;;6.55;2.58;;;;;;;17.94;100.00;101460.28;5047210;28;20030;-62
2023/07/19 02:36:02;;;;;;;4.68;2.55;;;;;;;17.96;100.00;101464.66;5047563;28;20033;-65
2023/07/19 02:38:27;;;;;;;6.97;2.53;;;;;;;17.94;100.00;101462.94;5046852;28;20032;-65
2023/07/19 02:41:00;;;;;;;3.85;2.33;;;;;;;17.94;100.00;101464.75;5045235;28;20033;-66
2023/07/19 02:43:26;;;;;;;8.25;2.97;;;;;;;17.91;100.00;101460.44;5047334;28;20467;-65
2023/07/19 02:45:53;;;;;;;5.28;2.53;;;;;;;17.86;100.00;101459.84;5045952;28;20070;-61
2023/07/19 02:48:19;;;;;;;9.55;2.70;;;;;;;17.74;100.00;101458.72;5046588;28;20021;-64
2023/07/19 02:50:48;;;;;;;6.80;2.30;;;;;;;17.78;100.00;101462.06;5047336;28;20391;-64
2023/07/19 02:53:13;;;;;;;5.10;2.33;;;;;;;17.82;100.00;101458.28;5046618;28;20025;-65
2023/07/19 02:55:39;;;;;;;5.85;2.33;;;;;;;17.91;100.00;101452.44;5047123;28;20021;-60
2023/07/19 02:58:06;;;;;;;5.13;2.08;;;;;;;17.85;100.00;101455.44;5046106;28;20033;-64
2023/07/19 03:00:32;;;;;;;9.13;2.70;;;;;;;17.85;100.00;101443.94;5049304;28;20031;-64
2023/07/19 03:02:57;;;;;;;5.28;2.72;;;;;;;17.88;100.00;101457.94;5050931;28;20025;-65
2023/07/19 03:05:23;;;;;;;6.05;2.40;;;;;;;17.85;100.00;101458.13;5050881;28;20059;-65
2023/07/19 03:07:49;;;;;;;6.90;2.67;;;;;;;17.84;100.00;101450.19;5049904;28;20049;-64
2023/07/19 03:10:15;;;;;;;6.22;2.53;;;;;;;17.86;100.00;101454.53;5051080;28;20051;-66
2023/07/19 03:12:40;;;;;;;7.20;2.60;;;;;;;17.82;100.00;101447.63;5050781;28;20494;-62
2023/07/19 03:15:06;;;;;;;5.88;2.70;;;;;;;17.84;100.00;101450.19;5032030;28;20068;-67
2023/07/19 03:17:31;;;;;;;5.10;2.40;;;;;;;17.77;100.00;101452.38;5030512;28;20380;-64
2023/07/19 03:19:57;;;;;;;4.53;2.60;;;;;;;17.78;100.00;101462.06;5029116;28;20030;-65
2023/07/19 03:22:22;;;;;;;4.68;2.67;;;;;;;17.73;100.00;101464.97;5030571;28;20113;-65
2023/07/19 03:24:47;;;;;;;5.43;2.63;;;;;;;17.66;100.00;101459.13;5029880;28;20030;-64
2023/07/19 03:27:13;;;;;;;6.65;2.30;;;;;;;17.63;100.00;101461.97;5030535;28;20075;-65
2023/07/19 03:29:38;;;;;;;5.28;2.35;;;;;;;17.58;100.00;101460.50;5028920;28;20025;-64
2023/07/19 03:32:04;;;;;;;4.90;2.70;;;;;;;17.58;100.00;101458.69;5042684;28;20074;-64
2023/07/19 03:34:29;;;;;;;7.95;2.92;;;;;;;17.54;100.00;101449.13;5050320;28;20029;-65
2023/07/19 03:36:55;;;;;;;5.07;2.80;;;;;;;17.53;100.00;101450.09;5049801;28;20017;-65
2023/07/19 03:39:20;;;;;;;7.97;2.83;;;;;;;17.51;100.00;101451.97;5049103;28;20029;-65
2023/07/19 03:41:45;;;;;;;6.25;3.03;;;;;;;17.52;100.00;101456.38;5043224;28;20033;-65
2023/07/19 03:44:11;;;;;;;6.38;2.92;;;;;;;17.52;100.00;101448.38;5028655;28;20029;-65
2023/07/19 03:46:36;;;;;;;6.82;2.78;;;;;;;17.53;100.00;101450.09;5028835;28;20041;-59
2023/07/19 03:49:01;;;;;;;7.93;2.92;;;;;;;17.55;100.00;101450.88;5029886;28;20068;-64
2023/07/19 03:51:27;;;;;;;7.72;3.03;;;;;;;17.54;100.00;101449.13;5030069;28;20048;-65
2023/07/19 03:53:52;;;;;;;4.90;2.60;;;;;;;17.54;100.00;101450.00;5029017;28;20037;-65
2023/07/19 03:56:18;;;;;;;5.07;2.85;;;;;;;17.55;100.00;101450.88;5029890;28;20045;-64
2023/07/19 03:58:48;;;;;;;4.72;2.80;;;;;;;17.53;100.00;101442.09;5028700;28;20427;-66
2023/07/19 04:01:14;;;;;;;4.18;2.65;;;;;;;17.55;100.00;101445.56;5029395;28;20045;-62
2023/07/19 04:03:40;;;;;;;6.43;3.13;;;;;;;17.58;100.00;101449.84;5028769;28;20055;-65
2023/07/19 04:06:06;;;;;;;8.57;3.45;;;;;;;17.66;100.00;101447.59;5009934;28;20026;-66
2023/07/19 04:08:31;;;;;;;6.28;3.17;;;;;;;17.60;100.00;101445.28;5008751;28;20053;-61
2023/07/19 04:10:58;;;;;;;5.68;3.00;;;;;;;17.57;100.00;101448.97;5010210;28;20026;-66
2023/07/19 04:13:23;;;;;;;4.88;3.05;;;;;;;17.60;100.00;101445.28;5012775;28;20026;-66
2023/07/19 04:15:49;;;;;;;4.78;2.75;;;;;;;17.59;100.00;101449.75;5033689;28;20395;-62
2023/07/19 04:18:14;;;;;;;6.68;2.83;;;;;;;17.61;100.00;101445.19;5031603;28;20165;-65
2023/07/19 04:20:39;;;;;;;7.03;2.70;;;;;;;17.68;100.00;101445.72;5048605;28;20036;-65
2023/07/19 04:23:05;;;;;;;4.40;2.80;;;;;;;17.70;100.00;101445.66;5048278;28;20029;-65
2023/07/19 04:25:30;;;;;;;6.32;3.10;;;;;;;17.72;100.00;101454.41;5048717;28;20044;-61
2023/07/19 04:27:56;;;;;;;8.55;2.85;;;;;;;17.78;100.00;101443.41;5049510;28;20032;-64
2023/07/19 04:30:21;;;;;;;7.53;3.10;;;;;;;17.81;100.00;101444.13;5049198;28;20029;-65
2023/07/19 04:32:48;;;;;;;7.28;2.90;;;;;;;17.88;100.00;101444.63;5030107;28;20521;-64
2023/07/19 04:35:14;;;;;;;5.57;3.05;;;;;;;17.86;100.00;101443.88;5029428;28;20034;-65
2023/07/19 04:37:40;;;;;;;4.95;2.47;;;;;;;17.87;100.00;101442.91;5028478;28;20033;-66
2023/07/19 04:40:08;;;;;;;8.52;2.78;;;;;;;17.90;100.00;101444.53;5029834;28;20583;-67
2023/07/19 04:42:33;;;;;;;7.25;3.30;;;;;;;17.90;100.00;101450.75;5047123;28;20083;-66
2023/07/19 04:44:58;;;;;;;6.80;2.80;;;;;;;17.94;100.00;101446.94;5047352;28;20021;-62
2023/07/19 04:47:24;;;;;;;6.95;3.25;;;;;;;18.00;100.00;101440.41;5048210;28;20028;-65
2023/07/19 04:49:49;;;;;;;8.85;3.15;;;;;;;18.03;100.00;101436.72;5034567;28;20034;-67
2023/07/19 04:52:14;;;;;;;8.75;3.45;;;;;;;18.08;100.00;101436.44;5028321;28;20037;-65
2023/07/19 04:54:40;;;;;;;6.22;2.83;;;;;;;18.21;100.00;101434.00;5026932;28;20439;-65
2023/07/19 04:57:06;;;;;;;9.23;3.60;;;;;;;18.27;100.00;101434.50;5027868;28;20482;-65
2023/07/19 04:59:31;;;;;;;7.22;3.40;;;;;;;18.37;100.00;101442.84;5028105;28;20014;-65
2023/07/19 05:01:57;;;;;;;6.07;3.30;;;;;;;18.41;100.00;101436.38;5030138;28;20026;-62
2023/07/19 05:04:22;;;;;;;5.45;3.15;;;;;;;18.47;100.00;101442.28;5028415;28;20107;-65
2023/07/19 05:06:49;;;;;;;9.13;3.50;;;;;;;18.51;100.00;101451.88;5027546;28;20423;-66
2023/07/19 05:09:15;;;;;;;8.43;3.33;;;;;;;18.62;100.00;101456.56;5028174;28;20021;-66
2023/07/19 05:11:41;;;;;;;6.47;3.35;;;;;;;18.68;100.00;101451.72;5028311;28;20029;-67
2023/07/19 05:14:06;;;;;;;5.57;3.45;;;;;;;18.75;100.00;101448.72;5028518;28;20041;-62
2023/07/19 05:16:33;;;;;;;5.90;3.42;;;;;;;18.79;100.00;101448.41;5028376;28;20116;-66
2023/07/19 05:18:58;;;;;;;7.47;3.25;;;;;;;18.84;100.00;101448.13;5043020;28;20111;-65
2023/07/19 05:21:24;;;;;;;6.70;3.60;;;;;;;18.89;100.00;101447.88;5048101;28;20793;-66
2023/07/19 05:23:49;;;;;;;10.07;3.45;;;;;;;18.98;100.00;101449.13;5046254;28;20064;-64
2023/07/19 05:26:14;;;;;;;11.52;3.70;;;;;;;19.06;100.00;101446.88;5048332;28;20037;-66
2023/07/19 05:28:40;;;;;;;5.97;3.40;;;;;;;19.12;100.00;101443.88;5047780;28;20516;-64
2023/07/19 05:31:09;;;;;;;7.70;3.78;;;;;;;19.16;100.00;101441.84;5043640;28;20033;-64
2023/07/19 05:33:34;;;;;;;;;;;;;;;19.33;100.00;101451.50;5027341;28;20407;-64
2023/07/19 05:36:00;;;;;;;8.25;3.70;;;;;;;19.43;100.00;101452.66;5027457;28;19919;-62
2023/07/19 05:38:26;;;;;;;14.77;3.25;;;;;;;19.55;100.00;101444.81;5023381;28;20018;-64
2023/07/19 05:40:52;;;;;;;6.80;3.40;;;;;;;19.66;100.00;101444.16;5027938;28;20032;-65
2023/07/19 05:43:18;;;;;;;8.63;3.35;;;;;;;19.62;100.00;101439.97;5028153;28;20029;-66
2023/07/19 05:45:44;;;;;;;9.32;3.45;;;;;;;19.66;100.00;101442.31;5027084;28;20040;-65
2023/07/19 05:48:09;;;;;;;4.18;2.50;;;;;;;19.90;100.00;101446.22;5029663;28;20033;-66
2023/07/19 05:50:36;;;;;;;4.85;2.85;;;;;;;19.92;100.00;101446.97;5045079;28;20036;-64
2023/07/19 05:53:02;;;;;;;7.40;3.10;;;;;;;19.92;100.00;101445.16;5046511;28;20100;-64
2023/07/19 05:55:27;;;;;;;8.02;3.42;;;;;;;19.91;100.00;101432.75;5048282;28;20166;-64
2023/07/19 05:57:53;;;;;;;8.40;2.65;;;;;;;19.91;100.00;101443.47;5047373;28;20029;-64
2023/07/19 06:00:19;;;;;;;10.40;3.90;;;;;;;19.82;100.00;101442.22;5028777;28;20057;-63
2023/07/19 06:02:45;;;;;;;9.57;3.28;;;;;;;19.91;100.00;101443.47;5027467;28;20028;-63
2023/07/19 06:05:12;;;;;;;7.90;2.95;;;;;;;19.84;100.00;101447.47;5026795;28;20033;-62
2023/07/19 06:07:37;;;;;;;7.78;2.90;;;;;;;19.92;100.00;101445.16;5026358;28;20049;-63
2023/07/19 06:10:05;;;;;;;7.70;2.92;;;;;;;19.91;100.00;101442.59;5026890;28;20029;-63
2023/07/19 06:12:30;;;;;;;7.60;3.67;;;;;;;20.01;100.00;101443.75;5027316;28;20108;-62
2023/07/19 06:14:56;;;;;;;7.97;3.13;;;;;;;20.01;100.00;101441.06;5027969;28;20129;-65
2023/07/19 06:17:21;;;;;;;8.25;3.50;;;;;;;19.98;100.00;101435.03;5026863;28;20014;-65
2023/07/19 06:19:47;;;;;;;5.00;2.63;;;;;;;20.11;100.00;101429.78;5026237;28;20112;-64
2023/07/19 06:22:12;;;;;;;6.18;2.60;;;;;;;20.16;100.00;101436.53;5026284;28;20053;-65
2023/07/19 06:24:37;;;;;;;8.88;2.70;;;;;;;20.27;100.00;101440.31;5026799;28;20064;-66
2023/07/19 06:27:03;;;;;;;4.45;2.38;;;;;;;20.34;100.00;101438.97;5027111;28;20079;-66
2023/07/19 06:29:28;;;;;;;3.92;1.95;;;;;;;20.56;100.00;101448.25;5026584;28;20027;-61
2023/07/19 06:31:54;;;;;;;4.60;1.85;;;;;;;20.75;100.00;101438.97;5027101;28;20051;-65
2023/07/19 06:34:19;;;;;;;5.93;2.50;;;;;;;20.85;100.00;101440.06;5027617;28;20480;-65
2023/07/19 06:36:44;;;;;;;6.75;2.13;;;;;;;21.02;100.00;101446.09;5037489;28;20029;-63
2023/07/19 06:39:10;;;;;;;7.10;2.20;;;;;;;21.00;100.00;101439.97;5029651;28;20598;-62
2023/07/19 06:41:35;;;;;;;6.90;1.90;;;;;;;21.06;100.00;101442.25;5030080;28;20036;-64
2023/07/19 06:44:00;;;;;;;4.55;2.08;;;;;;;21.06;100.00;101445.78;5030674;28;20018;-64
2023/07/19 06:46:26;;;;;;;3.58;1.85;;;;;;;21.06;100.00;101450.28;5030702;28;20141;-64
2023/07/19 06:48:51;;;;;;;7.45;2.17;;;;;;;20.99;100.00;101443.63;5030462;28;20029;-59
2023/07/19 06:51:17;;;;;;;4.78;1.77;;;;;;;20.82;100.00;101440.25;5030042;28;20395;-63
2023/07/19 06:53:42;;;;;;;5.85;2.20;;;;;;;20.94;100.00;101449.31;5029404;28;20053;-63
2023/07/19 06:56:08;;;;;;;6.10;2.20;;;;;;;20.87;100.00;101446.16;5031025;28;20032;-65
2023/07/19 06:58:33;;;;;;;5.78;2.13;;;;;;;20.88;100.00;101445.19;5030445;28;20024;-65
2023/07/19 07:00:59;;;;;;;7.35;2.15;;;;;;;20.86;100.00;101452.47;5031136;28;20341;-57
2023/07/19 07:03:24;;;;;;;4.68;1.65;;;;;;;20.86;100.00;101447.09;5042492;28;20082;-64
2023/07/19 07:05:50;;;;;;;11.55;2.40;;;;;;;20.91;100.00;101449.50;5050449;28;20467;-64
2023/07/19 07:08:15;;;;;;;5.00;1.65;;;;;;;20.97;100.00;101451.78;5041410;28;20132;-65
2023/07/19 07:10:43;;;;;;;5.82;2.10;;;;;;;21.07;100.00;101455.53;5029788;28;20344;-66
2023/07/19 07:13:09;;;;;;;6.03;2.22;;;;;;;21.12;100.00;101454.34;5030358;28;20033;-66
2023/07/19 07:15:35;;;;;;;9.32;2.58;;;;;;;21.32;100.00;101452.97;5029445;28;20507;-67
2023/07/19 07:18:00;;;;;;;8.23;2.72;;;;;;;21.34;100.00;101469.78;5031635;28;20108;-62
2023/07/19 07:20:25;;;;;;;7.13;2.20;;;;;;;21.42;100.00;101463.91;5030499;28;20224;-65
2023/07/19 07:22:52;;;;;;;6.47;2.42;;;;;;;21.53;100.00;101457.78;5028544;28;20114;-63
2023/07/19 07:25:19;;;;;;;7.72;2.10;;;;;;;21.64;100.00;101462.38;5030261;28;20026;-62
2023/07/19 07:27:44;;;;;;;4.72;2.28;;;;;;;21.84;100.00;101453.78;5028410;28;20041;-63
2023/07/19 07:30:10;;;;;;;6.07;2.00;;;;;;;21.91;100.00;101456.03;5030288;28;20364;-67
2023/07/19 07:32:35;;;;;;;8.38;2.35;;;;;;;22.05;100.00;101457.69;5030143;28;20392;-64
2023/07/19 07:35:02;;;;;;;6.38;2.25;;;;;;;22.20;100.00;101448.53;5036098;28;20037;-67
2023/07/19 07:37:28;;;;;;;6.55;2.10;;;;;;;22.33;100.00;101455.66;5049028;28;20437;-64
2023/07/19 07:39:53;;;;;;;7.55;2.20;;;;;;;22.44;100.00;101444.97;5049477;28;20025;-66
2023/07/19 07:42:19;;;;;;;6.10;2.30;;;;;;;22.54;100.00;101450.50;5050150;28;20482;-66
2023/07/19 07:44:45;;;;;;;5.68;2.30;;;;;;;22.68;100.00;101449.50;5048641;28;20031;-65
2023/07/19 07:47:10;;;;;;;3.67;2.30;;;;;;;22.91;99.16;101446.00;5049641;28;20395;-64
2023/07/19 07:49:36;;;;;;;5.57;2.22;;;;;;;22.95;99.13;101453.72;5049473;28;20103;-65
2023/07/19 07:52:03;;;;;;;7.70;2.10;;;;;;;22.78;100.00;101455.00;5044819;28;20050;-64
2023/07/19 07:54:28;;;;;;;5.68;2.20;;;;;;;22.84;99.75;101451.84;5028583;28;20623;-63
2023/07/19 07:56:54;;;;;;;7.32;2.50;;;;;;;22.68;100.00;101452.19;5029148;28;20048;-62
2023/07/19 07:59:19;;;;;;;10.63;2.72;;;;;;;22.71;100.00;101445.72;5047510;28;20028;-64
2023/07/19 08:01:44;;;;;;;10.48;2.67;;;;;;;22.79;100.00;101447.81;5039387;28;20037;-66
2023/07/19 08:04:11;;;;;;;4.03;1.55;;;;;;;22.97;100.00;101440.16;5028140;28;20083;-63
2023/07/19 08:06:36;;;;;;;7.05;2.22;;;;;;;23.34;98.54;101439.97;5026881;28;20491;-64
2023/07/19 08:09:02;;;;;;;4.10;2.33;;;;;;;23.67;96.67;101429.34;5028677;28;20037;-63
2023/07/19 08:11:28;;;;;;;4.60;2.22;;;;;;;23.78;93.51;101433.84;5028982;28;20029;-66
2023/07/19 08:13:53;;;;;;;3.42;1.83;;;;;;;23.73;93.02;101438.75;5030083;28;20022;-61
2023/07/19 08:16:19;;;;;;;4.78;2.13;;;;;;;23.69;92.30;101432.75;5030002;28;20388;-66
2023/07/19 08:18:45;;;;;;;4.72;1.90;;;;;;;23.67;92.72;101442.81;5029097;28;20387;-64
2023/07/19 08:21:10;;;;;;;6.28;2.25;;;;;;;23.69;92.99;101427.38;5029696;28;20035;-66
2023/07/19 08:23:36;;;;;;;7.70;2.10;;;;;;;23.63;93.43;101430.56;5028599;28;20561;-65
2023/07/19 08:26:02;;;;;;;4.07;2.08;;;;;;;23.38;94.49;101437.06;5029038;28;20025;-67
2023/07/19 08:28:27;;;;;;;5.72;2.20;;;;;;;23.25;94.97;101437.13;5030494;28;20072;-65
2023/07/19 08:30:53;;;;;;;6.75;2.25;;;;;;;23.05;96.16;101431.50;5032614;28;20041;-65
2023/07/19 08:33:20;;;;;;;7.57;2.30;;;;;;;22.96;96.03;101441.13;5048892;28;20665;-65
2023/07/19 08:35:46;;;;;;;5.63;1.95;;;;;;;22.89;96.40;101443.44;5049943;28;20029;-65
2023/07/19 08:38:11;;;;;;;6.30;1.98;;;;;;;22.94;96.73;101441.25;5050154;28;20096;-64
2023/07/19 08:40:39;;;;;;;7.72;2.63;;;;;;;22.95;96.96;101436.72;5049919;28;20029;-64
2023/07/19 08:43:07;;;;;;;11.82;2.47;;;;;;;23.01;97.06;101438.09;5049856;28;20071;-66
2023/07/19 08:45:37;;;;;;;7.13;2.22;;;;;;;23.17;97.47;101435.91;5048849;28;20029;-64
2023/07/19 08:48:03;;;;;;;5.00;2.00;;;;;;;23.18;97.58;101436.78;5043753;28;20522;-65
2023/07/19 08:50:29;;;;;;;6.15;2.30;;;;;;;23.46;96.47;101430.09;5029725;28;20053;-61
2023/07/19 08:52:54;;;;;;;5.55;2.28;;;;;;;23.68;93.11;101435.56;5029018;28;20080;-65
2023/07/19 08:55:23;;;;;;;8.02;2.25;;;;;;;23.83;91.61;101438.84;5028470;28;20441;-70
2023/07/19 08:57:48;;;;;;;5.35;2.10;;;;;;;23.80;92.27;101431.88;5028962;28;20036;-67
2023/07/19 09:00:17;;;;;;;6.72;2.17;;;;;;;23.82;92.29;101438.00;5028174;28;20026;-67
2023/07/19 09:02:43;;;;;;;6.30;2.05;;;;;;;23.66;93.96;101440.22;5027657;28;20032;-68
2023/07/19 09:05:13;;;;;;;6.53;2.40;;;;;;;23.66;91.21;101441.06;5028059;28;20026;-66
2023/07/19 09:07:39;;;;;;;8.98;2.30;;;;;;;23.57;95.34;101444.53;5042073;28;20577;-65
2023/07/19 09:10:09;;;;;;;6.57;2.25;;;;;;;23.50;95.99;101444.13;5047019;28;20418;-66
2023/07/19 09:12:42;;;;;;;4.95;2.20;;;;;;;23.45;97.60;101444.50;5032516;28;20360;-62
2023/07/19 09:15:10;;;;;;;5.18;1.90;;;;;;;23.56;97.63;101434.72;5027711;28;20432;-64
2023/07/19 09:17:43;;;;;;;4.60;2.35;;;;;;;23.65;98.00;101433.13;5027665;28;20464;-62
2023/07/19 09:20:09;;;;;;;7.25;2.30;;;;;;;23.69;90.72;101435.44;5026449;28;20144;-66
2023/07/19 09:22:36;;;;;;;6.68;2.15;;;;;;;23.47;91.24;101442.56;5025718;28;20108;-64
2023/07/19 09:25:03;;;;;;;6.60;2.20;;;;;;;23.66;91.45;101443.75;5027365;28;20033;-64
2023/07/19 09:27:29;;;;;;;13.02;2.55;;;;;;;23.44;90.94;101447.31;5025763;28;20037;-63
2023/07/19 09:29:55;;;;;;;6.32;2.45;;;;;;;23.09;98.31;101451.78;5028544;28;20017;-63
2023/07/19 09:32:22;;;;;;;6.65;2.47;;;;;;;22.87;100.00;101461.50;5037298;28;20066;-64
2023/07/19 09:34:48;;;;;;;10.27;2.83;;;;;;;22.54;100.00;101452.31;5047436;28;20025;-67
2023/07/19 09:37:14;;;;;;;9.57;2.17;;;;;;;22.43;100.00;101463.88;5042560;28;20048;-66
2023/07/19 09:39:40;;;;;;;7.55;2.15;;;;;;;22.32;100.00;101454.81;5045666;28;20059;-64
2023/07/19 09:42:08;;;;;;;12.45;2.58;;;;;;;22.44;100.00;101457.53;5031204;28;20064;-61
2023/07/19 09:44:34;;;;;;;7.37;2.50;;;;;;;22.58;100.00;101457.38;5026492;28;20030;-67
2023/07/19 09:47:00;;;;;;;8.32;2.42;;;;;;;22.71;100.00;101462.69;5027496;28;20333;-65
2023/07/19 09:49:26;;;;;;;6.85;2.47;;;;;;;22.77;100.00;101455.13;5028281;28;20021;-64
2023/07/19 09:51:51;;;;;;;11.20;2.78;;;;;;;22.45;100.00;101453.88;5025379;28;20116;-66
2023/07/19 09:54:17;;;;;;;8.85;2.38;;;;;;;22.39;100.00;101457.88;5029116;28;20104;-65
2023/07/19 09:56:43;;;;;;;10.77;2.47;;;;;;;22.26;100.00;101457.06;5029154;28;20025;-64
2023/07/19 09:59:12;;;;;;;9.80;2.78;;;;;;;22.27;100.00;101465.00;5026726;28;20036;-64
2023/07/19 10:01:38;;;;;;;6.95;2.35;;;;;;;22.31;100.00;101473.72;5026357;28;20033;-63
2023/07/19 10:04:27;;;;;;;10.77;2.25;;;;;;;22.41;100.00;101453.25;5027823;28;20750;-67
2023/07/19 10:07:18;;;;;;;8.35;2.70;;;;;;;22.68;100.00;101459.38;5025151;28;20033;-66
2023/07/19 10:09:45;;;;;;;9.70;2.75;;;;;;;22.75;100.00;101462.47;5027796;28;20033;-66
2023/07/19 10:12:16;;;;;;;5.60;2.25;;;;;;;22.92;100.00;101464.72;5029325;28;20025;-65
2023/07/19 10:15:06;;;;;;;6.65;2.50;;;;;;;23.05;98.44;101459.22;5033843;28;20025;-66
2023/07/19 10:17:53;;;;;;;7.47;2.08;;;;;;;22.93;98.97;101455.66;5048275;28;20033;-67
2023/07/19 10:20:28;;;;;;;9.10;2.40;;;;;;;23.09;97.82;101465.22;5036651;28;20028;-66
2023/07/19 10:22:55;;;;;;;9.90;2.13;;;;;;;23.03;96.64;101463.84;5027957;28;20037;-65
2023/07/19 10:25:27;;;;;;;8.77;2.35;;;;;;;22.78;97.10;101467.59;5028093;28;20385;-65
2023/07/19 10:28:01;;;;;;;7.38;2.30;;;;;;;22.76;97.59;101472.22;5028167;28;20029;-63
2023/07/19 10:30:42;;;;;;;6.25;1.92;;;;;;;22.91;96.26;101467.50;5028846;28;20025;-62
2023/07/19 10:33:08;;;;;;;7.22;2.15;;;;;;;22.89;95.08;101464.06;5028387;28;20071;-65
2023/07/19 10:35:34;;;;;;;4.20;1.90;;;;;;;22.90;95.19;101461.28;5028025;28;20064;-63
2023/07/19 10:37:59;;;;;;;5.78;2.15;;;;;;;22.95;94.51;101468.97;5027959;28;20079;-63
2023/07/19 10:40:24;;;;;;;5.75;1.90;;;;;;;23.13;93.26;101466.69;5028222;28;20033;-65
2023/07/19 10:42:50;;;;;;;4.13;1.50;;;;;;;23.21;92.97;101472.31;5028709;28;20041;-65
2023/07/19 10:45:15;;;;;;;9.07;1.98;;;;;;;23.40;90.55;101472.75;5029405;28;20372;-65
2023/07/19 10:47:40;;;;;;;5.22;1.73;;;;;;;23.50;89.90;101478.28;5029061;28;20049;-66
2023/07/19 10:50:07;;;;;;;5.25;1.88;;;;;;;23.60;89.33;101474.69;5027503;28;20499;-65
2023/07/19 10:52:33;;;;;;;2.83;1.73;;;;;;;23.83;87.04;101481.91;5028673;28;20060;-66
2023/07/19 10:54:58;;;;;;;3.05;1.52;;;;;;;23.86;87.50;101462.81;5028316;28;20049;-62
2023/07/19 10:57:24;;;;;;;18.00;2.13;;;;;;;23.63;87.89;101472.75;5029406;28;20026;-62
2023/07/19 10:59:51;;;;;;;3.30;1.50;;;;;;;23.11;89.32;101474.00;5028990;28;20029;-66
2023/07/19 11:02:17;;;;;;;3.10;1.30;;;;;;;23.28;89.21;101463.78;5027756;28;20057;-63
2023/07/19 11:04:42;;;;;;;7.50;1.88;;;;;;;23.57;88.41;101457.97;5026130;28;20408;-65
2023/07/19 11:07:08;;;;;;;4.82;1.90;;;;;;;23.87;87.58;101464.53;5026766;28;20063;-62
2023/07/19 11:09:33;;;;;;;3.90;1.50;;;;;;;24.22;85.54;101458.13;5028214;28;20022;-64
2023/07/19 11:11:58;;;;;;;4.20;1.63;;;;;;;24.48;85.28;101462.31;5027419;28;20022;-64
2023/07/19 11:14:28;;;;;;;8.38;1.77;;;;;;;25.04;85.68;101464.88;5027333;28;20360;-66